Time;durP1;ratioP1;P1;durP2;ratioP2;P2;SDS_P1;SDS_P2;PMS_P1;PMS_P2;Temp;Humidity;BMP_temperature;BMP_pressure;BME280_temperature;BME280_humidity;BME280_pressure;Samples;Min_cycle;Max_cycle;Signal;HPM_P1;HPM_P2
2022/02/11 00:02:20;;;;;;;5.05;1.63;;;;;;;1.64;64.64;98135.59;5051680;28;20071;-62
2022/02/11 00:04:58;;;;;;;7.38;1.92;;;;;;;1.64;64.97;98141.59;5047269;28;20063;-62
2022/02/11 00:07:25;;;;;;;3.80;1.92;;;;;;;1.59;65.04;98134.41;5033475;28;20049;-62
2022/02/11 00:09:54;;;;;;;5.75;2.20;;;;;;;1.55;64.89;98135.81;5032882;28;20051;-61
2022/02/11 00:12:21;;;;;;;3.17;2.03;;;;;;;1.61;64.76;98133.41;5033113;28;20048;-62
2022/02/11 00:15:22;;;;;;;2.67;2.00;;;;;;;1.62;64.79;98134.97;5031603;28;20060;-62
2022/02/11 00:17:47;;;;;;;;;;;;;;;1.59;64.62;98136.22;5031784;28;20319;-61
2022/02/11 00:20:13;;;;;;;5.18;2.20;;;;;;;1.55;64.97;98132.41;5032783;28;20011;-61
2022/02/11 00:22:38;;;;;;;3.05;1.85;;;;;;;1.50;64.97;98143.50;5033246;28;20144;-62
2022/02/11 00:25:04;;;;;;;5.90;1.90;;;;;;;1.52;64.86;98135.44;5032606;28;20073;-61
2022/02/11 00:30:47;;;;;;;3.40;1.63;;;;;;;1.49;65.17;98134.06;5034286;28;20036;-61
2022/02/11 00:33:27;;;;;;;5.15;1.70;;;;;;;1.51;65.25;98139.88;5052631;28;20056;-61
2022/02/11 00:35:59;;;;;;;4.35;2.00;;;;;;;1.49;64.76;98141.88;5051312;28;20182;-62
2022/02/11 00:41:49;;;;;;;3.58;1.77;;;;;;;1.41;65.84;98142.13;5052970;28;20049;-61
2022/02/11 01:03:09;;;;;;;3.42;1.65;;;;;;;1.41;65.07;98131.69;5052304;28;20045;-61
2022/02/11 01:05:26;;;;;;;3.33;1.63;;;;;;;1.32;65.34;98120.72;5046229;28;20054;-61
2022/02/11 01:07:51;;;;;;;3.65;1.60;;;;;;;1.48;64.62;98129.06;5030872;28;20044;-64
2022/02/11 01:10:18;;;;;;;3.75;1.90;;;;;;;1.49;64.88;98122.81;5030901;28;20419;-60
2022/02/11 01:12:44;;;;;;;4.00;1.85;;;;;;;1.44;64.96;98128.69;5032317;28;20033;-61
2022/02/11 01:15:10;;;;;;;5.75;1.83;;;;;;;1.45;64.82;98137.31;5045180;28;20048;-61
2022/02/11 01:17:42;;;;;;;3.58;1.50;;;;;;;1.46;64.93;98129.25;5052145;28;20041;-61
2022/02/11 01:28:16;;;;;;;5.22;1.65;;;;;;;1.44;64.63;98126.06;5050530;28;20079;-62
2022/02/11 01:51:54;;;;;;;3.40;2.10;;;;;;;1.35;64.72;98114.25;5051331;28;20041;-61
2022/02/11 02:26:34;;;;;;;5.57;2.10;;;;;;;1.22;64.61;98093.44;5038651;28;20045;-61
2022/02/11 02:50:35;;;;;;;4.85;2.00;;;;;;;1.23;64.41;98095.81;5047206;28;20460;-60
2022/02/11 02:58:32;;;;;;;3.58;1.88;;;;;;;1.16;64.54;98092.47;5042094;28;20041;-61
2022/02/11 03:01:33;;;;;;;6.10;2.03;;;;;;;1.12;64.70;98092.09;5036267;28;20136;-62
2022/02/11 03:56:36;;;;;;;4.07;1.60;;;;;;;1.25;64.74;98075.53;5033091;28;20042;-62
2022/02/11 04:56:05;;;;;;;6.45;2.25;;;;;;;1.16;64.91;98092.47;5048025;28;20044;-62
2022/02/11 05:01:18;;;;;;;5.50;2.40;;;;;;;1.12;65.25;98092.09;5052306;28;20080;-61
2022/02/11 05:03:43;;;;;;;2.85;2.00;;;;;;;1.19;64.89;98086.03;5050456;28;20430;-61
2022/02/11 05:06:09;;;;;;;6.72;2.15;;;;;;;1.17;65.27;98101.88;5050468;28;20062;-63
2022/02/11 05:08:35;;;;;;;5.65;2.05;;;;;;;1.21;65.17;98097.88;5052181;28;20457;-62
2022/02/11 05:11:03;;;;;;;5.93;2.38;;;;;;;1.10;65.22;98107.13;5052090;28;20128;-61
2022/02/11 05:13:29;;;;;;;4.22;2.00;;;;;;;1.14;65.02;98104.91;5031371;28;20292;-63
2022/02/11 05:15:55;;;;;;;4.15;2.08;;;;;;;1.18;65.37;98103.50;5034825;28;20065;-63
2022/02/11 05:18:20;;;;;;;4.47;2.20;;;;;;;1.21;65.31;98102.28;4997807;28;20045;-62
2022/02/11 05:20:47;;;;;;;6.32;2.13;;;;;;;1.19;65.44;98106.91;5014206;28;20072;-63
2022/02/11 05:23:14;;;;;;;7.15;2.97;;;;;;;1.19;65.54;98105.09;5041307;28;20093;-62
2022/02/11 05:25:41;;;;;;;7.53;2.42;;;;;;;1.22;65.07;98103.88;5050202;28;20113;-62
2022/02/11 05:28:08;;;;;;;5.13;2.30;;;;;;;1.28;64.90;98101.22;5051624;28;20048;-62
2022/02/11 05:30:34;;;;;;;6.85;2.38;;;;;;;1.31;64.84;98103.41;5048519;28;20448;-61
2022/02/11 05:33:00;;;;;;;6.35;2.05;;;;;;;1.35;64.75;98106.41;5050109;28;20045;-61
2022/02/11 05:35:27;;;;;;;6.72;2.22;;;;;;;1.41;65.22;98110.00;5048821;28;20119;-61
2022/02/11 05:37:52;;;;;;;7.28;1.95;;;;;;;1.48;64.46;98113.38;5043639;28;20056;-60
2022/02/11 05:40:18;;;;;;;5.82;2.00;;;;;;;1.41;65.04;98113.41;5032473;28;20041;-59
2022/02/11 05:42:44;;;;;;;6.30;2.30;;;;;;;1.39;64.59;98104.19;5030153;28;20535;-61
2022/02/11 05:45:10;;;;;;;7.93;2.55;;;;;;;1.38;64.91;98107.81;5029661;28;20071;-59
2022/02/11 05:47:36;;;;;;;3.45;1.73;;;;;;;1.36;64.81;98108.81;5030425;28;20069;-61
2022/02/11 05:50:03;;;;;;;5.03;2.20;;;;;;;1.33;65.16;98122.28;4996744;28;20044;-61
2022/02/11 05:52:33;;;;;;;7.00;2.00;;;;;;;1.42;64.91;98116.84;5031233;28;20049;-60
2022/02/11 05:55:00;;;;;;;6.90;2.42;;;;;;;1.45;64.80;98111.19;5032527;28;20033;-60
2022/02/11 05:57:26;;;;;;;7.53;2.50;;;;;;;1.47;64.52;98112.59;5030676;28;20049;-59
2022/02/11 05:59:51;;;;;;;3.50;2.03;;;;;;;1.50;64.46;98106.94;5013460;28;20499;-59
2022/02/11 06:02:18;;;;;;;5.90;2.10;;;;;;;1.54;64.75;98110.72;5024615;28;20064;-60
2022/02/11 06:04:44;;;;;;;7.68;2.97;;;;;;;1.58;64.46;98111.09;5025647;28;20101;-61
2022/02/11 06:07:09;;;;;;;6.38;2.35;;;;;;;1.63;64.57;98107.88;5008318;28;20511;-60
2022/02/11 06:09:35;;;;;;;5.45;2.10;;;;;;;1.67;63.95;98117.66;5024846;28;20187;-60
2022/02/11 06:12:01;;;;;;;6.30;2.28;;;;;;;1.69;64.30;98112.25;5027127;28;20060;-60
2022/02/11 06:14:27;;;;;;;5.10;2.22;;;;;;;1.72;64.29;98102.16;5001079;28;20048;-61
2022/02/11 06:16:53;;;;;;;3.95;2.28;;;;;;;1.65;64.43;98113.66;5011839;28;20049;-60
2022/02/11 06:19:19;;;;;;;10.90;2.10;;;;;;;1.71;64.54;98115.47;5029126;28;20594;-61
2022/02/11 06:21:44;;;;;;;4.47;2.65;;;;;;;1.80;63.86;98116.81;5030124;28;20034;-59
2022/02/11 06:24:12;;;;;;;5.18;2.13;;;;;;;1.80;64.03;98120.22;5030660;28;20289;-60
2022/02/11 06:26:41;;;;;;;12.40;2.72;;;;;;;1.89;64.01;98115.53;4979876;28;20069;-60
2022/02/11 06:29:07;;;;;;;7.97;2.17;;;;;;;1.81;63.37;98121.81;5027544;28;20030;-61
2022/02/11 06:31:33;;;;;;;5.93;2.47;;;;;;;1.79;64.05;98112.56;5032635;28;20049;-61
2022/02/11 06:33:59;;;;;;;10.13;2.60;;;;;;;1.84;64.02;98112.75;5049064;28;20403;-61
2022/02/11 06:36:24;;;;;;;8.82;2.30;;;;;;;1.96;63.38;98120.69;5041404;28;20068;-60
2022/02/11 06:38:50;;;;;;;6.40;2.22;;;;;;;2.03;63.08;98117.03;5025653;28;20060;-63
2022/02/11 06:41:16;;;;;;;7.63;2.90;;;;;;;2.08;63.09;98113.75;5027943;28;20072;-61
2022/02/11 06:43:42;;;;;;;5.45;2.28;;;;;;;2.05;63.13;98112.38;5033528;28;20085;-62
2022/02/11 06:46:08;;;;;;;10.50;2.60;;;;;;;2.16;62.73;98110.09;5011571;28;20049;-63
2022/02/11 06:48:34;;;;;;;6.13;2.67;;;;;;;2.16;63.30;98112.72;5031121;28;20041;-62
2022/02/11 06:50:59;;;;;;;6.68;2.45;;;;;;;2.32;62.84;98120.00;5046270;28;20045;-63
2022/02/11 06:53:26;;;;;;;5.93;2.35;;;;;;;2.41;62.76;98113.50;5035884;28;20041;-64
2022/02/11 06:55:52;;;;;;;7.70;2.65;;;;;;;2.55;62.20;98119.38;5028501;28;20045;-62
2022/02/11 06:58:20;;;;;;;6.78;2.40;;;;;;;2.55;62.00;98116.75;5028228;28;20057;-63
2022/02/11 07:00:47;;;;;;;6.47;2.63;;;;;;;2.55;62.16;98118.59;5029091;28;20048;-59
2022/02/11 07:03:13;;;;;;;7.88;2.42;;;;;;;2.61;61.28;98117.72;5044652;28;20144;-62
2022/02/11 07:05:39;;;;;;;8.43;2.95;;;;;;;2.63;61.92;98119.09;5032523;28;20124;-61
2022/02/11 07:08:06;;;;;;;9.95;2.65;;;;;;;2.73;61.76;98127.22;5031989;28;20047;-63
2022/02/11 07:10:32;;;;;;;6.20;2.60;;;;;;;2.76;61.56;98125.22;5048682;28;20173;-61
2022/02/11 07:12:58;;;;;;;6.80;2.60;;;;;;;2.93;61.37;98131.47;5033640;28;20208;-62
2022/02/11 07:15:24;;;;;;;7.13;2.85;;;;;;;3.06;60.86;98133.94;5031248;28;20199;-61
2022/02/11 07:17:50;;;;;;;7.88;2.33;;;;;;;3.08;60.76;98129.28;5031109;28;20052;-62
2022/02/11 07:20:16;;;;;;;10.75;2.80;;;;;;;3.06;60.46;98122.66;5037345;28;20033;-61
2022/02/11 07:22:42;;;;;;;7.88;2.50;;;;;;;3.11;60.56;98128.03;5030660;28;20144;-63
2022/02/11 07:25:10;;;;;;;8.23;3.08;;;;;;;3.13;60.51;98126.00;5013513;28;20053;-62
2022/02/11 07:27:37;;;;;;;5.53;2.53;;;;;;;3.25;60.13;98131.31;5033312;28;20507;-62
2022/02/11 07:30:04;;;;;;;9.48;3.30;;;;;;;3.26;60.27;98131.06;5012965;28;20045;-62
2022/02/11 07:32:30;;;;;;;5.15;2.13;;;;;;;3.31;59.86;98125.19;5039682;28;20056;-61
2022/02/11 07:34:58;;;;;;;8.50;2.88;;;;;;;3.34;59.76;98136.00;5048673;28;20037;-62
2022/02/11 07:37:24;;;;;;;11.35;3.00;;;;;;;3.30;60.00;98124.38;5050417;28;20051;-62
2022/02/11 07:39:51;;;;;;;8.57;3.08;;;;;;;3.42;59.77;98130.47;5047259;28;20094;-61
2022/02/11 07:42:17;;;;;;;8.90;3.10;;;;;;;3.55;59.83;98123.44;5013733;28;20056;-63
2022/02/11 07:44:44;;;;;;;9.30;2.85;;;;;;;3.61;59.52;98128.59;5022676;28;20044;-62
2022/02/11 07:47:10;;;;;;;13.68;2.90;;;;;;;3.62;59.93;98121.56;5014220;28;20075;-60
2022/02/11 07:49:37;;;;;;;8.85;2.80;;;;;;;3.74;58.89;98126.81;5029400;28;20077;-61
2022/02/11 07:52:05;;;;;;;4.55;2.90;;;;;;;3.82;58.98;98126.47;5011554;28;20128;-61
2022/02/11 07:54:31;;;;;;;10.23;2.95;;;;;;;3.85;59.09;98111.13;5026820;28;20553;-63
2022/02/11 07:56:57;;;;;;;7.95;2.85;;;;;;;3.91;58.94;98112.03;5030414;28;20067;-61
2022/02/11 07:59:23;;;;;;;11.07;4.32;;;;;;;3.95;58.53;98121.06;5026493;28;20068;-63
2022/02/11 08:01:48;;;;;;;9.98;2.67;;;;;;;4.00;58.25;98115.13;5044861;28;20093;-62
2022/02/11 08:04:14;;;;;;;9.05;2.75;;;;;;;3.73;59.27;98109.47;5048492;28;20045;-63
2022/02/11 08:06:40;;;;;;;10.82;3.35;;;;;;;3.84;58.86;98117.38;5046290;28;20048;-64
2022/02/11 08:09:06;;;;;;;6.13;2.88;;;;;;;3.91;58.66;98114.66;5045024;28;20243;-63
2022/02/11 08:11:32;;;;;;;6.95;2.95;;;;;;;3.92;58.45;98113.63;5031471;28;20053;-63
2022/02/11 08:13:58;;;;;;;6.25;2.85;;;;;;;3.86;58.56;98112.72;5020911;28;20510;-63
2022/02/11 08:16:24;;;;;;;8.73;3.13;;;;;;;3.91;58.85;98106.78;5042935;28;20061;-63
2022/02/11 08:18:50;;;;;;;9.63;2.92;;;;;;;3.98;58.54;98110.13;5016029;28;20037;-62
2022/02/11 08:21:16;;;;;;;11.20;3.15;;;;;;;4.06;58.17;98115.03;5039248;28;20510;-64
2022/02/11 08:23:42;;;;;;;6.40;2.70;;;;;;;4.09;58.13;98119.03;5029566;28;20057;-65
2022/02/11 08:26:08;;;;;;;8.52;3.50;;;;;;;4.17;58.33;98115.25;5027120;28;20053;-65
2022/02/11 08:28:36;;;;;;;9.43;2.72;;;;;;;4.22;58.01;98124.03;5027923;28;20041;-66
2022/02/11 08:31:02;;;;;;;10.13;3.75;;;;;;;4.31;57.87;98119.25;5028248;28;20045;-64
2022/02/11 08:33:28;;;;;;;11.77;3.70;;;;;;;4.40;57.92;98122.34;5026759;28;20049;-65
2022/02/11 08:35:55;;;;;;;8.07;2.70;;;;;;;4.50;57.43;98127.81;5027861;28;20053;-66
2022/02/11 08:38:22;;;;;;;9.15;2.85;;;;;;;4.52;57.10;98123.94;5028747;28;20051;-65
2022/02/11 08:40:48;;;;;;;8.07;2.90;;;;;;;4.46;57.40;98130.09;5026672;28;20584;-63
2022/02/11 08:43:15;;;;;;;8.52;3.70;;;;;;;4.55;57.36;98125.31;5026820;28;20440;-65
2022/02/11 08:45:41;;;;;;;10.02;3.42;;;;;;;4.46;57.66;98124.84;4993323;28;20418;-65
2022/02/11 08:48:12;;;;;;;6.63;2.55;;;;;;;4.57;56.82;98132.97;5027971;28;20049;-68
2022/02/11 08:50:40;;;;;;;7.10;2.50;;;;;;;4.64;56.59;98123.94;5026994;28;20041;-66
2022/02/11 08:53:07;;;;;;;6.70;2.60;;;;;;;4.65;57.12;98127.38;5029167;28;20041;-65
2022/02/11 08:55:33;;;;;;;13.82;2.97;;;;;;;4.47;56.82;98125.66;5026642;28;20052;-66
2022/02/11 08:57:59;;;;;;;10.00;2.80;;;;;;;4.51;57.36;98126.81;5011767;28;20071;-63
2022/02/11 09:00:29;;;;;;;6.95;2.63;;;;;;;4.67;56.74;98125.31;5028551;28;20045;-64
2022/02/11 09:02:55;;;;;;;6.75;2.63;;;;;;;4.69;56.31;98125.88;5028474;28;20067;-63
2022/02/11 09:05:22;;;;;;;8.07;2.70;;;;;;;4.49;57.10;98123.59;5027718;28;20300;-64
2022/02/11 09:07:53;;;;;;;12.23;3.10;;;;;;;4.50;57.34;98127.81;5027809;28;20049;-63
2022/02/11 09:10:21;;;;;;;12.48;4.13;;;;;;;4.50;57.13;98122.56;5028410;28;20068;-64
2022/02/11 09:12:46;;;;;;;7.70;2.78;;;;;;;4.48;57.02;98129.88;5029131;28;20525;-63
2022/02/11 09:15:12;;;;;;;7.32;2.55;;;;;;;4.39;56.94;98118.13;5027710;28;20139;-62
2022/02/11 09:17:38;;;;;;;10.30;2.55;;;;;;;4.27;57.47;98121.56;5029151;28;20053;-63
2022/02/11 09:20:05;;;;;;;8.43;2.78;;;;;;;4.35;57.11;98124.84;5028876;28;20116;-64
2022/02/11 09:22:31;;;;;;;10.30;2.83;;;;;;;4.36;57.54;98119.38;5029118;28;20038;-63
2022/02/11 09:24:56;;;;;;;9.02;2.78;;;;;;;4.35;58.15;98120.41;5028871;28;20059;-63
2022/02/11 09:27:23;;;;;;;7.88;2.42;;;;;;;4.42;57.66;98117.69;5028210;28;20128;-63
2022/02/11 09:29:49;;;;;;;8.93;3.13;;;;;;;4.46;56.64;98124.06;5027785;28;20076;-64
2022/02/11 09:32:16;;;;;;;10.85;2.55;;;;;;;4.35;57.22;98119.59;5028217;28;20037;-63
2022/02/11 09:34:41;;;;;;;6.13;2.20;;;;;;;4.33;57.40;98120.63;5029245;28;20044;-62
2022/02/11 09:37:07;;;;;;;9.75;2.63;;;;;;;4.33;57.22;98119.84;5029842;28;20049;-63
2022/02/11 09:39:33;;;;;;;14.52;5.45;;;;;;;4.41;57.68;98122.13;5030569;28;20049;-61
2022/02/11 09:41:59;;;;;;;7.88;2.50;;;;;;;4.37;56.96;98125.44;5029777;28;20128;-63
2022/02/11 09:44:27;;;;;;;6.32;2.80;;;;;;;4.49;56.87;98128.84;5031500;28;20045;-62
2022/02/11 09:46:54;;;;;;;6.53;2.53;;;;;;;4.56;55.93;98124.31;5047943;28;20049;-61
2022/02/11 09:49:21;;;;;;;9.10;2.67;;;;;;;4.76;55.99;98123.91;5034924;28;20044;-61
2022/02/11 09:51:50;;;;;;;8.75;2.50;;;;;;;4.84;55.20;98120.94;5029579;28;20113;-61
2022/02/11 09:54:18;;;;;;;11.63;2.58;;;;;;;4.93;55.08;98126.63;5048461;28;20051;-63
2022/02/11 09:56:44;;;;;;;12.07;2.67;;;;;;;4.97;54.70;98125.97;5036773;28;20052;-62
2022/02/11 09:59:10;;;;;;;6.55;2.70;;;;;;;4.98;54.67;98116.25;5025927;28;20562;-64
2022/02/11 10:01:38;;;;;;;9.38;4.30;;;;;;;5.09;54.70;98131.19;5027909;28;20134;-62
2022/02/11 10:04:10;;;;;;;10.73;3.58;;;;;;;4.74;54.81;98123.38;5026404;28;20570;-61
2022/02/11 10:06:36;;;;;;;8.02;2.80;;;;;;;4.88;55.36;98123.91;5009846;28;20038;-63
2022/02/11 10:09:03;;;;;;;12.38;2.47;;;;;;;4.92;54.87;98125.06;5029219;28;20505;-63
2022/02/11 10:11:28;;;;;;;6.20;2.60;;;;;;;5.05;54.13;98126.63;5036893;28;20387;-62
2022/02/11 10:13:56;;;;;;;6.28;2.50;;;;;;;5.08;55.08;98124.31;5046710;28;20098;-63
2022/02/11 10:16:25;;;;;;;5.85;2.80;;;;;;;5.21;55.45;98131.94;5043636;28;20573;-61
2022/02/11 10:18:53;;;;;;;4.45;2.13;;;;;;;5.30;54.70;98123.69;5041287;28;20049;-62
2022/02/11 10:21:20;;;;;;;7.53;2.67;;;;;;;5.34;53.82;98120.34;5029769;28;20157;-61
2022/02/11 10:23:47;;;;;;;6.70;2.60;;;;;;;5.31;53.27;98112.94;5027498;28;20534;-62
2022/02/11 10:26:15;;;;;;;7.47;2.25;;;;;;;5.39;52.69;98117.81;5009343;28;20073;-62
2022/02/11 10:28:45;;;;;;;10.65;2.65;;;;;;;5.46;51.99;98121.09;5043819;28;20045;-59
2022/02/11 10:31:20;;;;;;;8.57;2.55;;;;;;;5.56;51.51;98111.81;5047929;28;20099;-60
2022/02/11 10:34:18;;;;;;;6.85;2.50;;;;;;;5.57;52.66;98114.22;5049783;28;20045;-62
2022/02/11 10:36:48;;;;;;;9.73;3.10;;;;;;;5.56;51.94;98115.25;5001084;28;20073;-64
2022/02/11 10:39:25;;;;;;;11.35;3.38;;;;;;;5.56;51.28;98104.72;5019906;28;20044;-62
2022/02/11 10:41:55;;;;;;;6.22;1.88;;;;;;;5.62;50.53;98111.69;5038535;28;20084;-62
2022/02/11 10:44:26;;;;;;;4.82;2.40;;;;;;;5.48;50.72;98115.63;5030257;28;20479;-63
2022/02/11 10:46:55;;;;;;;7.38;2.80;;;;;;;5.50;50.60;98110.94;5036837;28;20179;-64
2022/02/11 10:49:51;;;;;;;7.93;2.45;;;;;;;5.43;51.95;98111.06;5051944;28;20045;-63
2022/02/11 10:52:19;;;;;;;8.75;2.30;;;;;;;5.34;51.33;98109.84;5051857;28;20087;-63
2022/02/11 10:54:50;;;;;;;8.85;3.47;;;;;;;5.28;51.41;98107.34;5030985;28;20413;-63
2022/02/11 10:57:21;;;;;;;10.82;2.63;;;;;;;5.32;51.49;98116.34;5023999;28;20418;-64
2022/02/11 10:59:48;;;;;;;5.32;2.28;;;;;;;5.19;50.91;98118.22;5031566;28;20045;-63
2022/02/11 11:02:16;;;;;;;4.90;2.20;;;;;;;5.22;51.15;98111.72;5032838;28;20449;-63
2022/02/11 11:04:45;;;;;;;4.18;2.13;;;;;;;5.23;50.88;98118.56;5031057;28;20160;-64
2022/02/11 11:07:13;;;;;;;7.15;2.10;;;;;;;5.21;50.50;98115.38;5038490;28;20041;-64
2022/02/11 11:09:45;;;;;;;12.93;2.30;;;;;;;5.31;50.76;98112.94;5051300;28;20501;-63
2022/02/11 11:12:14;;;;;;;8.57;2.50;;;;;;;5.33;51.10;98110.09;5050702;28;20052;-63
2022/02/11 11:14:41;;;;;;;7.65;2.22;;;;;;;5.40;51.16;98118.63;5050078;28;20674;-63
2022/02/11 11:17:07;;;;;;;6.38;2.22;;;;;;;5.40;50.40;98124.66;5049176;28;20183;-62
2022/02/11 11:19:35;;;;;;;6.55;2.42;;;;;;;5.44;50.56;98122.38;5041836;28;20083;-62
2022/02/11 11:22:16;;;;;;;4.53;2.25;;;;;;;5.52;50.29;98119.38;5038692;28;20038;-62
2022/02/11 11:24:48;;;;;;;6.68;2.60;;;;;;;5.44;53.14;98119.75;5028393;28;20403;-61
2022/02/11 11:27:42;;;;;;;8.27;2.92;;;;;;;5.33;51.90;98120.59;5027519;28;20504;-62
2022/02/11 11:30:29;;;;;;;10.02;2.30;;;;;;;5.30;50.21;98119.25;5010085;28;20041;-62
2022/02/11 11:33:04;;;;;;;8.32;2.20;;;;;;;5.29;50.88;98122.09;5037153;28;20057;-62
2022/02/11 11:35:40;;;;;;;7.90;2.80;;;;;;;5.21;50.85;98113.56;5029173;28;20045;-62
2022/02/11 11:38:13;;;;;;;10.60;2.72;;;;;;;5.29;50.55;98122.88;5048801;28;20549;-60
2022/02/11 11:40:40;;;;;;;5.97;3.17;;;;;;;5.22;50.51;98114.34;5046469;28;20457;-62
2022/02/11 11:43:13;;;;;;;8.10;2.88;;;;;;;5.29;49.99;98122.88;5031290;28;20155;-62
2022/02/11 11:45:43;;;;;;;7.28;2.80;;;;;;;5.24;49.79;98120.97;5029845;28;20041;-61
2022/02/11 11:48:16;;;;;;;8.20;2.90;;;;;;;5.06;50.47;98118.50;5011548;28;20460;-61
2022/02/11 11:50:42;;;;;;;6.32;2.60;;;;;;;5.08;49.56;98121.69;5011280;28;20037;-62
2022/02/11 11:53:25;;;;;;;8.25;2.85;;;;;;;5.11;49.82;98129.09;5011251;28;20053;-62
2022/02/11 11:55:51;;;;;;;8.88;2.47;;;;;;;5.15;50.12;98113.69;5041115;28;20422;-60
2022/02/11 11:58:45;;;;;;;6.05;2.50;;;;;;;4.89;49.75;98118.44;5029036;28;20048;-63
2022/02/11 12:01:19;;;;;;;3.88;2.33;;;;;;;4.91;49.93;98121.63;5028983;28;20057;-62
2022/02/11 12:04:24;;;;;;;7.03;2.30;;;;;;;4.86;49.81;98125.97;5046254;28;20049;-65
2022/02/11 12:07:00;;;;;;;5.47;2.60;;;;;;;4.78;50.13;98125.28;5045999;28;20065;-65
2022/02/11 12:09:27;;;;;;;6.72;2.45;;;;;;;4.64;51.00;98112.63;5022150;28;20047;-66
2022/02/11 12:12:01;;;;;;;5.15;2.33;;;;;;;4.60;50.02;98120.19;5009884;28;20135;-64
2022/02/11 12:14:30;;;;;;;9.63;2.72;;;;;;;4.54;50.83;98134.22;5046962;28;20032;-66
2022/02/11 12:16:59;;;;;;;5.38;2.10;;;;;;;4.57;50.96;98131.13;5048889;28;20059;-65
2022/02/11 12:19:25;;;;;;;5.97;2.15;;;;;;;4.44;50.98;98123.47;5047694;28;20037;-64
2022/02/11 12:21:51;;;;;;;11.13;2.38;;;;;;;4.50;50.96;98136.50;5045157;28;20581;-63
2022/02/11 12:27:20;;;;;;;8.50;2.60;;;;;;;4.52;51.98;98141.50;5045744;28;20043;-62
2022/02/11 12:30:09;;;;;;;5.07;2.30;;;;;;;4.42;51.56;98134.22;5047018;28;20037;-66
2022/02/11 12:32:39;;;;;;;3.42;1.73;;;;;;;4.25;51.23;98130.66;5045632;28;20076;-62
2022/02/11 12:35:08;;;;;;;5.00;2.28;;;;;;;4.24;51.13;98139.56;5044972;28;20041;-62
2022/02/11 12:37:34;;;;;;;6.80;2.20;;;;;;;4.32;51.15;98140.03;5045224;28;20037;-62
2022/02/11 12:40:11;;;;;;;5.70;2.00;;;;;;;4.26;51.28;98145.38;5034873;28;20042;-62
2022/02/11 12:42:42;;;;;;;5.53;2.15;;;;;;;4.28;51.99;98141.50;5028339;28;20489;-62
2022/02/11 12:45:10;;;;;;;5.60;2.00;;;;;;;4.35;50.90;98148.47;5040961;28;20110;-63
2022/02/11 12:47:37;;;;;;;4.70;2.78;;;;;;;4.31;50.87;98151.53;5048032;28;20657;-63
2022/02/11 12:50:04;;;;;;;6.03;2.63;;;;;;;4.26;51.33;98153.25;5046964;28;20036;-62
2022/02/11 12:52:33;;;;;;;5.93;2.45;;;;;;;4.32;51.01;98155.78;5047407;28;20049;-63
2022/02/11 12:55:16;;;;;;;4.78;1.95;;;;;;;4.28;51.13;98153.81;5048772;28;20044;-62
2022/02/11 12:57:56;;;;;;;3.45;2.00;;;;;;;4.20;51.29;98152.31;5029572;28;20079;-62
2022/02/11 13:00:24;;;;;;;5.05;2.22;;;;;;;4.18;50.85;98153.59;5026163;28;20087;-63
2022/02/11 13:02:55;;;;;;;5.20;2.05;;;;;;;4.23;50.99;98158.94;5027251;28;20291;-62
2022/02/11 13:05:24;;;;;;;8.05;3.15;;;;;;;4.06;51.01;98156.19;5027659;28;20072;-62
2022/02/11 13:07:53;;;;;;;5.05;2.17;;;;;;;4.09;51.06;98166.25;5028830;28;20064;-62
2022/02/11 13:10:22;;;;;;;5.53;2.17;;;;;;;4.04;51.41;98166.09;5027187;28;20095;-62
2022/02/11 13:12:52;;;;;;;6.88;2.00;;;;;;;4.09;51.08;98167.03;5026829;28;20652;-62
2022/02/11 13:15:19;;;;;;;6.47;2.00;;;;;;;4.05;51.28;98162.44;4987369;28;20056;-64
2022/02/11 13:17:45;;;;;;;6.45;1.90;;;;;;;4.01;51.34;98175.22;5006342;28;20046;-63
2022/02/11 13:20:20;;;;;;;8.27;2.20;;;;;;;4.03;51.57;98174.97;5008218;28;20362;-63
2022/02/11 13:22:48;;;;;;;4.22;2.25;;;;;;;4.02;51.83;98176.00;5008376;28;20141;-63
2022/02/11 13:25:15;;;;;;;9.90;3.42;;;;;;;4.02;51.75;98170.75;5007996;28;20062;-60
2022/02/11 13:27:52;;;;;;;6.20;2.40;;;;;;;3.98;51.73;98174.88;5006928;28;20423;-61
2022/02/11 13:30:29;;;;;;;9.13;2.95;;;;;;;3.98;51.56;98180.13;4992292;28;20582;-62
2022/02/11 13:32:59;;;;;;;10.02;3.03;;;;;;;3.96;51.64;98176.91;5008532;28;20045;-63
2022/02/11 13:35:25;;;;;;;5.28;2.40;;;;;;;3.94;51.96;98181.56;4990826;28;20048;-61
2022/02/11 13:37:53;;;;;;;7.63;2.42;;;;;;;3.80;52.31;98180.97;5010046;28;20420;-62
2022/02/11 13:40:21;;;;;;;6.93;2.33;;;;;;;3.85;52.53;98183.69;5008555;28;20045;-63
2022/02/11 13:43:02;;;;;;;7.03;2.08;;;;;;;3.85;52.21;98183.69;5023566;28;20073;-62
2022/02/11 13:45:29;;;;;;;5.65;2.30;;;;;;;3.84;52.00;98187.34;5028547;28;20487;-62
2022/02/11 13:48:08;;;;;;;5.63;2.67;;;;;;;3.85;52.42;98191.56;5027755;28;20045;-61
2022/02/11 13:51:02;;;;;;;5.20;2.08;;;;;;;3.77;52.14;98182.22;5028303;28;20136;-61
2022/02/11 13:53:49;;;;;;;6.55;2.50;;;;;;;3.62;53.00;98184.44;5027146;28;20502;-61
2022/02/11 13:56:19;;;;;;;6.53;2.17;;;;;;;3.61;53.17;98191.47;5027359;28;20495;-62
2022/02/11 13:59:05;;;;;;;7.82;2.65;;;;;;;3.55;52.98;98191.56;5029786;28;20042;-62
2022/02/11 14:01:32;;;;;;;5.75;2.42;;;;;;;3.48;53.00;98193.50;5026335;28;20152;-62
2022/02/11 14:03:59;;;;;;;4.78;2.15;;;;;;;3.40;53.41;98184.09;4993692;28;20117;-64
2022/02/11 14:06:25;;;;;;;5.65;2.25;;;;;;;3.44;53.35;98192.31;5027407;28;20443;-61
2022/02/11 14:08:51;;;;;;;5.20;2.80;;;;;;;3.42;53.03;98189.94;4993878;28;20041;-63
2022/02/11 14:11:21;;;;;;;4.25;2.00;;;;;;;3.36;53.34;98198.66;5023205;28;20045;-61
2022/02/11 14:13:48;;;;;;;5.78;3.10;;;;;;;3.28;53.95;98183.25;4999575;28;20052;-62
2022/02/11 14:16:16;;;;;;;6.70;2.70;;;;;;;3.20;53.35;98189.56;5006758;28;20038;-64
2022/02/11 14:18:42;;;;;;;4.88;2.20;;;;;;;3.11;53.94;98193.50;5006184;28;20475;-61
2022/02/11 14:21:17;;;;;;;7.75;2.20;;;;;;;3.08;54.08;98188.69;4991228;28;20048;-63
2022/02/11 14:23:43;;;;;;;5.57;2.30;;;;;;;3.06;53.83;98198.56;5008573;28;20136;-62
2022/02/11 14:26:09;;;;;;;4.75;1.80;;;;;;;2.99;54.05;98184.78;5006625;28;20450;-60
2022/02/11 14:28:36;;;;;;;6.80;1.95;;;;;;;2.94;54.56;98182.78;5007300;28;20053;-63
2022/02/11 14:31:04;;;;;;;4.78;2.10;;;;;;;2.90;54.61;98186.88;5028233;28;20048;-62
2022/02/11 14:33:30;;;;;;;5.15;2.00;;;;;;;2.95;53.94;98190.44;5026930;28;20049;-61
2022/02/11 14:35:56;;;;;;;6.40;2.08;;;;;;;3.00;54.45;98194.22;5029430;28;20046;-62
2022/02/11 14:38:23;;;;;;;7.97;2.63;;;;;;;2.96;53.98;98194.66;5028383;28;20127;-62
2022/02/11 14:43:33;;;;;;;7.90;3.22;;;;;;;2.84;54.56;98214.72;5026341;28;20045;-63
2022/02/11 14:45:59;;;;;;;7.80;3.33;;;;;;;2.86;54.74;98212.69;5026393;28;20045;-62
2022/02/11 14:48:25;;;;;;;8.13;3.13;;;;;;;2.88;54.41;98215.91;5026925;28;20451;-63
2022/02/11 14:50:51;;;;;;;6.95;2.50;;;;;;;2.82;54.50;98210.69;5025519;28;20038;-61
2022/02/11 14:53:17;;;;;;;8.23;2.72;;;;;;;2.81;55.04;98220.38;5026846;28;20060;-64
2022/02/11 14:55:43;;;;;;;6.95;2.30;;;;;;;2.81;54.63;98222.19;5024628;28;20610;-61
2022/02/11 14:58:09;;;;;;;3.70;2.25;;;;;;;2.81;55.06;98219.56;5026439;28;20557;-62
2022/02/11 15:00:35;;;;;;;6.15;2.33;;;;;;;2.83;54.94;98222.78;5028508;28;20041;-61
2022/02/11 15:03:01;;;;;;;8.68;2.40;;;;;;;2.80;54.90;98234.47;5010645;28;20049;-63
2022/02/11 15:05:26;;;;;;;7.30;2.40;;;;;;;2.74;55.26;98230.13;5027974;28;20060;-61
2022/02/11 15:07:53;;;;;;;4.88;2.45;;;;;;;2.70;55.45;98232.34;5025974;28;20042;-62
2022/02/11 15:10:20;;;;;;;7.60;2.80;;;;;;;2.68;55.55;98236.22;5026618;28;20494;-60
2022/02/11 15:12:46;;;;;;;7.20;3.25;;;;;;;2.67;55.71;98240.63;5028310;28;20475;-62
2022/02/11 15:15:12;;;;;;;8.85;2.60;;;;;;;2.66;56.13;98246.06;5025130;28;20048;-62
2022/02/11 15:17:38;;;;;;;9.82;3.40;;;;;;;2.63;56.13;98251.75;5025886;28;20037;-62
2022/02/11 15:20:05;;;;;;;8.05;3.03;;;;;;;2.67;56.16;98240.63;5025360;28;20468;-63
2022/02/11 15:22:34;;;;;;;6.70;3.10;;;;;;;2.67;56.67;98242.44;5026998;28;20474;-61
2022/02/11 15:25:01;;;;;;;8.07;3.15;;;;;;;2.63;56.31;98247.31;5029524;28;20041;-63
2022/02/11 15:27:29;;;;;;;6.47;2.85;;;;;;;2.62;56.45;98242.28;5013911;28;20523;-61
2022/02/11 15:29:56;;;;;;;9.48;3.28;;;;;;;2.60;56.62;98242.50;5031071;28;20061;-62
2022/02/11 15:32:22;;;;;;;8.05;3.40;;;;;;;2.55;56.98;98241.53;5011791;28;20042;-63
2022/02/11 15:34:48;;;;;;;8.80;2.55;;;;;;;2.59;56.99;98255.78;5031148;28;20461;-62
2022/02/11 15:37:19;;;;;;;9.98;4.18;;;;;;;2.62;56.87;98261.41;5031502;28;20041;-61
2022/02/11 15:39:49;;;;;;;8.18;2.88;;;;;;;2.61;57.07;98256.38;5012838;28;20049;-62
2022/02/11 15:42:24;;;;;;;7.25;3.10;;;;;;;2.61;56.92;98261.59;4999051;28;20041;-61